Time;durP1;ratioP1;P1;durP2;ratioP2;P2;SDS_P1;SDS_P2;PMS_P1;PMS_P2;Temp;Humidity;BMP_temperature;BMP_pressure;BME280_temperature;BME280_humidity;BME280_pressure;Samples;Min_cycle;Max_cycle;Signal;HPM_P1;HPM_P2
2022/07/06 00:01:18;;;;;;;;;;;15.60;99.90;;;;;;5114271;28;19923;-79
2022/07/06 00:03:43;;;;;;;;;;;15.60;99.90;;;;;;5097145;28;20324;-78
2022/07/06 00:06:09;;;;;;;;;;;15.60;99.90;;;;;;5096259;28;19931;-78
2022/07/06 00:08:34;;;;;;;;;;;15.60;99.90;;;;;;5062486;28;20445;-78
2022/07/06 00:11:00;;;;;;;;;;;15.60;99.90;;;;;;5114329;28;19931;-79
2022/07/06 00:13:26;;;;;;;;;;;15.60;99.90;;;;;;5095893;28;20363;-78
2022/07/06 00:15:51;;;;;;;;;;;15.60;99.90;;;;;;5114081;28;20022;-78
2022/07/06 00:18:17;;;;;;;;;;;15.60;99.90;;;;;;5096417;28;20014;-79
2022/07/06 00:20:42;;;;;;;;;;;15.60;99.90;;;;;;5095999;28;20320;-78
2022/07/06 00:23:08;;;;;;;;;;;15.50;99.90;;;;;;5095782;28;19978;-78
2022/07/06 00:25:34;;;;;;;;;;;15.60;99.90;;;;;;5095902;28;19931;-78
2022/07/06 00:27:59;;;;;;;;;;;15.50;99.90;;;;;;5096022;28;20014;-79
2022/07/06 00:30:25;;;;;;;;;;;15.50;99.90;;;;;;5062882;28;19986;-79
2022/07/06 00:32:51;;;;;;;;;;;15.50;99.90;;;;;;5095713;28;20224;-79
2022/07/06 00:35:16;;;;;;;;;;;15.50;99.90;;;;;;5096060;28;19931;-78
2022/07/06 00:37:42;;;;;;;;;;;15.50;99.90;;;;;;5096827;28;19928;-78
2022/07/06 00:40:07;;;;;;;;;;;15.50;99.90;;;;;;5100082;28;19923;-78
2022/07/06 00:42:43;;;;;;;;;;;15.60;99.90;;;;;;5082824;28;20011;-79
2022/07/06 00:45:10;;;;;;;;;;;15.60;99.90;;;;;;5100355;28;19927;-79
2022/07/06 00:47:35;;;;;;;;;;;15.60;99.90;;;;;;5083207;28;19923;-78
2022/07/06 00:50:14;;;;;;;;;;;15.50;99.90;;;;;;5099989;28;20351;-79
2022/07/06 00:52:43;;;;;;;;;;;15.50;99.90;;;;;;5100491;28;20361;-78
2022/07/06 00:55:10;;;;;;;;;;;15.50;99.90;;;;;;5099810;28;20015;-78
2022/07/06 00:57:36;;;;;;;;;;;15.50;99.90;;;;;;5100160;28;19927;-77
2022/07/06 01:00:03;;;;;;;;;;;15.50;99.90;;;;;;5099667;28;19923;-78
2022/07/06 01:02:30;;;;;;;;;;;15.50;99.90;;;;;;5099819;28;19930;-78
2022/07/06 01:04:56;;;;;;;;;;;15.50;99.90;;;;;;5100401;28;20010;-78
2022/07/06 01:07:22;;;;;;;;;;;15.50;99.90;;;;;;5118033;28;20002;-78
2022/07/06 01:09:47;;;;;;;;;;;15.50;99.90;;;;;;5099208;28;19931;-78
2022/07/06 01:12:13;;;;;;;;;;;15.40;99.90;;;;;;5100057;28;19971;-78
2022/07/06 01:14:38;;;;;;;;;;;15.40;99.90;;;;;;5082558;28;19960;-77
2022/07/06 01:17:04;;;;;;;;;;;15.40;99.90;;;;;;5082762;28;19924;-79
2022/07/06 01:19:30;;;;;;;;;;;15.40;99.90;;;;;;5083065;28;19931;-78
2022/07/06 01:21:56;;;;;;;;;;;15.40;99.90;;;;;;5099605;28;19967;-77
2022/07/06 01:24:22;;;;;;;;;;;15.40;99.90;;;;;;5100127;28;20352;-78
2022/07/06 01:26:48;;;;;;;;;;;15.30;99.90;;;;;;5117760;28;19977;-77
2022/07/06 01:29:13;;;;;;;;;;;15.30;99.90;;;;;;5099345;28;19927;-77
2022/07/06 01:31:49;;;;;;;;;;;15.30;99.90;;;;;;5082147;28;19930;-78
2022/07/06 01:34:16;;;;;;;;;;;15.20;99.90;;;;;;5117183;28;19924;-77
2022/07/06 01:36:41;;;;;;;;;;;15.20;99.90;;;;;;5117062;28;19930;-78
2022/07/06 01:39:07;;;;;;;;;;;15.20;99.90;;;;;;5098796;28;20014;-78
2022/07/06 01:41:33;;;;;;;;;;;15.10;99.90;;;;;;5098649;28;19931;-78
2022/07/06 01:43:59;;;;;;;;;;;15.00;99.90;;;;;;5082015;28;19928;-77
2022/07/06 01:46:24;;;;;;;;;;;15.00;99.90;;;;;;5081757;28;20007;-77
2022/07/06 01:48:50;;;;;;;;;;;14.90;99.90;;;;;;5098728;28;19985;-77
2022/07/06 01:51:15;;;;;;;;;;;14.80;99.90;;;;;;5099574;28;19946;-78
2022/07/06 01:53:41;;;;;;;;;;;14.70;99.90;;;;;;5099149;28;20404;-77
2022/07/06 01:56:07;;;;;;;;;;;14.70;99.90;;;;;;5116677;28;19966;-79
2022/07/06 01:58:33;;;;;;;;;;;14.60;99.90;;;;;;5098814;28;19976;-77
2022/07/06 02:00:58;;;;;;;;;;;14.50;99.90;;;;;;5116601;28;20014;-77
2022/07/06 02:03:24;;;;;;;;;;;14.50;99.90;;;;;;5099273;28;19924;-78
2022/07/06 02:05:50;;;;;;;;;;;14.40;99.90;;;;;;5098500;28;19928;-78
2022/07/06 02:08:15;;;;;;;;;;;14.40;99.90;;;;;;5116419;28;19979;-78
2022/07/06 02:10:41;;;;;;;;;;;14.40;99.90;;;;;;5064826;28;19930;-77
2022/07/06 02:13:06;;;;;;;;;;;14.30;99.90;;;;;;5097861;28;19972;-78
2022/07/06 02:15:32;;;;;;;;;;;14.20;99.90;;;;;;5098256;28;19927;-78
2022/07/06 02:17:57;;;;;;;;;;;14.30;99.90;;;;;;5098596;28;19989;-77
2022/07/06 02:20:23;;;;;;;;;;;14.20;99.90;;;;;;5098252;28;19930;-77
2022/07/06 02:22:49;;;;;;;;;;;14.20;99.90;;;;;;5098260;28;19931;-77
2022/07/06 02:25:14;;;;;;;;;;;14.10;99.90;;;;;;5098128;28;19968;-78
2022/07/06 02:27:40;;;;;;;;;;;14.10;99.90;;;;;;5098123;28;20363;-77
2022/07/06 02:30:06;;;;;;;;;;;14.10;99.90;;;;;;5080936;28;19927;-78
2022/07/06 02:32:31;;;;;;;;;;;14.00;99.90;;;;;;5097677;28;19968;-77
2022/07/06 02:34:58;;;;;;;;;;;14.00;99.90;;;;;;5097781;28;20386;-77
2022/07/06 02:37:24;;;;;;;;;;;14.00;99.90;;;;;;5097855;28;19968;-77
2022/07/06 02:39:49;;;;;;;;;;;14.00;99.90;;;;;;5098505;28;19963;-77
2022/07/06 02:42:15;;;;;;;;;;;13.90;99.90;;;;;;5115928;28;19935;-77
2022/07/06 02:44:41;;;;;;;;;;;13.90;99.90;;;;;;5097523;28;19923;-78
2022/07/06 02:47:06;;;;;;;;;;;13.90;99.90;;;;;;5116433;28;19924;-77
2022/07/06 02:49:32;;;;;;;;;;;13.90;99.90;;;;;;5097896;28;20359;-77
2022/07/06 02:51:57;;;;;;;;;;;13.90;99.90;;;;;;5080646;28;19923;-77
2022/07/06 02:54:23;;;;;;;;;;;13.80;99.90;;;;;;5115705;28;19924;-77
2022/07/06 02:56:52;;;;;;;;;;;13.90;99.90;;;;;;5097523;28;20352;-77
2022/07/06 02:59:18;;;;;;;;;;;13.90;99.90;;;;;;5097135;28;19924;-78
2022/07/06 03:01:43;;;;;;;;;;;13.90;99.90;;;;;;5063691;28;19976;-77
2022/07/06 03:04:09;;;;;;;;;;;13.90;99.90;;;;;;5115330;28;19955;-77
2022/07/06 03:06:34;;;;;;;;;;;13.90;99.90;;;;;;5097032;28;20328;-77
2022/07/06 03:09:00;;;;;;;;;;;13.90;99.90;;;;;;5115857;28;19930;-77
2022/07/06 03:11:26;;;;;;;;;;;13.90;99.90;;;;;;5080336;28;19924;-78
2022/07/06 03:13:51;;;;;;;;;;;13.90;99.90;;;;;;5096826;28;20025;-77
2022/07/06 03:16:17;;;;;;;;;;;13.90;99.90;;;;;;5097151;28;19924;-78
2022/07/06 03:18:42;;;;;;;;;;;13.90;99.90;;;;;;5097096;28;19931;-77
2022/07/06 03:21:08;;;;;;;;;;;13.90;99.90;;;;;;5097232;28;19930;-78
2022/07/06 03:23:33;;;;;;;;;;;13.90;99.90;;;;;;5098410;28;19991;-77
2022/07/06 03:25:59;;;;;;;;;;;13.90;99.90;;;;;;5130744;27;19985;-77
2022/07/06 03:28:25;;;;;;;;;;;13.90;99.90;;;;;;5097037;28;19924;-78
2022/07/06 03:30:50;;;;;;;;;;;13.90;99.90;;;;;;5079632;28;20372;-77
2022/07/06 03:33:16;;;;;;;;;;;13.90;99.90;;;;;;5114782;28;20052;-78
2022/07/06 03:35:41;;;;;;;;;;;14.00;99.90;;;;;;5098131;28;19928;-78
2022/07/06 03:38:07;;;;;;;;;;;14.00;99.90;;;;;;5096407;28;19924;-77
2022/07/06 03:40:33;;;;;;;;;;;14.10;99.90;;;;;;5097452;28;19934;-77
2022/07/06 03:42:58;;;;;;;;;;;14.10;99.90;;;;;;5114955;28;19930;-78
2022/07/06 03:45:24;;;;;;;;;;;14.20;99.90;;;;;;5096544;28;20305;-77
2022/07/06 03:47:50;;;;;;;;;;;14.30;99.90;;;;;;5096573;28;19924;-77
2022/07/06 03:50:15;;;;;;;;;;;14.40;99.90;;;;;;5096586;28;20390;-77
2022/07/06 03:52:41;;;;;;;;;;;14.50;99.90;;;;;;5096417;28;19977;-77
2022/07/06 03:55:10;;;;;;;;;;;14.50;99.90;;;;;;5079653;28;19972;-77
2022/07/06 03:57:36;;;;;;;;;;;14.60;99.90;;;;;;5096285;28;19924;-77
2022/07/06 04:00:03;;;;;;;;;;;14.60;99.90;;;;;;5096726;28;19924;-78
2022/07/06 04:02:28;;;;;;;;;;;14.60;99.90;;;;;;5079381;28;19924;-78
2022/07/06 04:04:54;;;;;;;;;;;14.70;99.90;;;;;;5080269;28;20343;-78
2022/07/06 04:07:19;;;;;;;;;;;14.70;99.90;;;;;;5096427;28;19981;-77
2022/07/06 04:09:45;;;;;;;;;;;14.50;99.90;;;;;;5079841;28;19924;-77
2022/07/06 04:12:11;;;;;;;;;;;14.20;99.90;;;;;;5113404;28;20023;-77
2022/07/06 04:14:36;;;;;;;;;;;14.10;99.90;;;;;;5113715;28;19923;-77
2022/07/06 04:19:46;;;;;;;;;;;13.90;99.90;;;;;;5131047;27;20076;-77
2022/07/06 04:22:12;;;;;;;;;;;13.90;99.90;;;;;;5079708;28;20329;-77
2022/07/06 04:24:37;;;;;;;;;;;13.90;99.90;;;;;;5113959;28;19928;-77
2022/07/06 04:27:03;;;;;;;;;;;13.90;99.90;;;;;;5079433;28;19924;-77
2022/07/06 04:29:28;;;;;;;;;;;13.90;99.90;;;;;;5096861;28;19931;-78
2022/07/06 04:31:54;;;;;;;;;;;13.90;99.90;;;;;;5114906;28;19958;-77
2022/07/06 04:34:20;;;;;;;;;;;14.00;99.90;;;;;;5113925;28;19924;-78
2022/07/06 04:36:46;;;;;;;;;;;14.00;99.90;;;;;;5129996;28;20381;-77
2022/07/06 04:39:12;;;;;;;;;;;14.00;99.90;;;;;;5096709;28;19923;-76
2022/07/06 04:41:37;;;;;;;;;;;14.10;99.90;;;;;;5095417;28;19924;-78
2022/07/06 04:44:03;;;;;;;;;;;14.10;99.90;;;;;;5095897;28;19928;-77
2022/07/06 04:46:29;;;;;;;;;;;14.20;99.90;;;;;;5079236;28;19978;-78
2022/07/06 04:48:54;;;;;;;;;;;14.30;99.90;;;;;;5096931;28;19962;-77
2022/07/06 04:51:20;;;;;;;;;;;14.30;99.90;;;;;;5096435;28;20377;-77
2022/07/06 04:53:45;;;;;;;;;;;14.40;99.90;;;;;;5096293;28;19924;-78
2022/07/06 04:56:11;;;;;;;;;;;14.60;99.90;;;;;;5095640;28;20026;-78
2022/07/06 04:58:36;;;;;;;;;;;14.60;99.90;;;;;;5130129;28;19966;-78
2022/07/06 05:01:02;;;;;;;;;;;14.70;99.90;;;;;;5078782;28;19928;-78
2022/07/06 05:03:28;;;;;;;;;;;14.80;99.90;;;;;;5095589;28;20018;-77
2022/07/06 05:05:53;;;;;;;;;;;14.90;99.90;;;;;;5079026;28;19924;-77
2022/07/06 05:08:19;;;;;;;;;;;15.00;99.90;;;;;;5095431;28;19924;-77
2022/07/06 05:10:44;;;;;;;;;;;15.00;99.90;;;;;;5095877;28;19931;-78
2022/07/06 05:13:10;;;;;;;;;;;15.10;99.90;;;;;;5095230;28;19973;-77
2022/07/06 05:15:35;;;;;;;;;;;15.10;99.90;;;;;;5095696;28;19924;-78
2022/07/06 05:18:01;;;;;;;;;;;15.20;99.90;;;;;;5095444;28;20442;-78
2022/07/06 05:20:27;;;;;;;;;;;15.30;99.90;;;;;;5079653;28;20263;-77
2022/07/06 05:22:52;;;;;;;;;;;15.30;99.90;;;;;;5095515;28;19935;-76
2022/07/06 05:25:18;;;;;;;;;;;15.30;99.90;;;;;;5082028;28;19931;-77
2022/07/06 05:27:43;;;;;;;;;;;15.40;99.90;;;;;;5082353;28;19924;-78
2022/07/06 05:30:09;;;;;;;;;;;15.40;99.90;;;;;;5098946;28;19931;-77
2022/07/06 05:32:35;;;;;;;;;;;15.40;99.90;;;;;;5116893;28;19927;-77
2022/07/06 05:35:00;;;;;;;;;;;15.40;99.90;;;;;;5081898;28;19932;-79
2022/07/06 05:37:26;;;;;;;;;;;15.50;99.90;;;;;;5082279;28;19977;-77
2022/07/06 05:39:51;;;;;;;;;;;15.50;99.90;;;;;;5117144;28;20409;-77
2022/07/06 05:42:18;;;;;;;;;;;15.50;99.90;;;;;;5098754;28;20376;-78
2022/07/06 05:44:43;;;;;;;;;;;15.60;99.90;;;;;;5082120;28;19927;-77
2022/07/06 05:52:38;;;;;;;;;;;15.90;99.90;;;;;;5118277;27;19970;-77
2022/07/06 05:55:04;;;;;;;;;;;16.00;99.90;;;;;;5099130;28;19928;-78
2022/07/06 05:57:30;;;;;;;;;;;16.10;99.90;;;;;;5081812;28;19969;-77
2022/07/06 05:59:55;;;;;;;;;;;16.10;99.90;;;;;;5099409;28;19924;-78
2022/07/06 06:02:21;;;;;;;;;;;16.20;99.90;;;;;;5098594;28;19930;-80
2022/07/06 06:04:46;;;;;;;;;;;16.20;99.90;;;;;;5098388;28;19931;-79
2022/07/06 06:07:12;;;;;;;;;;;16.30;99.90;;;;;;5081667;28;19980;-80
2022/07/06 06:09:37;;;;;;;;;;;16.40;99.90;;;;;;5081687;28;19971;-83
2022/07/06 06:12:03;;;;;;;;;;;16.40;99.90;;;;;;5082219;28;19955;-84
2022/07/06 06:14:29;;;;;;;;;;;16.40;99.90;;;;;;5098506;28;19993;-77
2022/07/06 06:16:54;;;;;;;;;;;16.50;99.90;;;;;;5098066;28;19930;-78
2022/07/06 06:19:20;;;;;;;;;;;16.60;99.90;;;;;;5064998;28;20422;-77
2022/07/06 06:21:45;;;;;;;;;;;16.60;99.90;;;;;;5098437;28;19931;-77
2022/07/06 06:24:11;;;;;;;;;;;16.60;99.90;;;;;;5098435;28;19924;-78
2022/07/06 06:26:37;;;;;;;;;;;16.60;99.90;;;;;;5116694;28;19924;-78
2022/07/06 06:29:02;;;;;;;;;;;16.50;99.90;;;;;;5098007;28;19997;-80
2022/07/06 06:31:28;;;;;;;;;;;16.60;99.90;;;;;;5098051;28;19927;-77
2022/07/06 06:33:53;;;;;;;;;;;16.70;99.90;;;;;;5097565;28;20336;-78
2022/07/06 06:36:19;;;;;;;;;;;16.70;99.90;;;;;;5096767;28;19947;-78
2022/07/06 06:38:44;;;;;;;;;;;16.70;99.90;;;;;;5080832;28;19923;-78
2022/07/06 06:41:10;;;;;;;;;;;16.70;99.90;;;;;;5081026;28;19954;-78
2022/07/06 06:43:36;;;;;;;;;;;16.80;99.90;;;;;;5080469;28;20011;-78
2022/07/06 06:46:01;;;;;;;;;;;16.70;99.90;;;;;;5080858;28;19928;-79
2022/07/06 06:48:27;;;;;;;;;;;16.70;99.90;;;;;;5064435;28;20212;-78
2022/07/06 06:50:52;;;;;;;;;;;16.80;99.90;;;;;;5097249;28;19928;-78
2022/07/06 06:53:18;;;;;;;;;;;16.70;99.90;;;;;;5080475;28;19931;-78
2022/07/06 06:55:43;;;;;;;;;;;16.80;99.90;;;;;;5064638;28;19924;-79
2022/07/06 06:58:09;;;;;;;;;;;16.90;99.90;;;;;;5097594;28;19977;-78
2022/07/06 07:00:35;;;;;;;;;;;17.00;99.90;;;;;;5098242;28;19934;-79
2022/07/06 07:03:00;;;;;;;;;;;17.10;99.90;;;;;;5097116;28;20379;-78
2022/07/06 07:05:26;;;;;;;;;;;17.00;99.90;;;;;;5097278;28;19924;-79
2022/07/06 07:07:51;;;;;;;;;;;16.90;99.90;;;;;;5096619;28;19923;-79
2022/07/06 07:10:17;;;;;;;;;;;16.70;99.90;;;;;;5079938;28;20011;-78
2022/07/06 07:12:47;;;;;;;;;;;16.70;99.90;;;;;;5096701;28;19927;-78
2022/07/06 07:15:13;;;;;;;;;;;16.60;99.90;;;;;;5096709;28;19928;-79
2022/07/06 07:17:39;;;;;;;;;;;16.50;99.90;;;;;;5079912;28;19998;-77
2022/07/06 07:20:06;;;;;;;;;;;16.60;99.90;;;;;;5079912;28;19927;-77
2022/07/06 07:22:31;;;;;;;;;;;16.80;99.90;;;;;;5079506;28;19942;-78
2022/07/06 07:24:58;;;;;;;;;;;16.80;99.90;;;;;;5096745;28;19923;-78
2022/07/06 07:27:24;;;;;;;;;;;16.90;99.90;;;;;;5096182;28;20360;-78
2022/07/06 07:29:50;;;;;;;;;;;16.80;99.90;;;;;;5079777;28;19931;-78
2022/07/06 07:32:15;;;;;;;;;;;16.70;99.90;;;;;;5097112;28;19924;-78
2022/07/06 07:34:41;;;;;;;;;;;16.60;99.90;;;;;;5096567;28;20398;-77
2022/07/06 07:37:06;;;;;;;;;;;16.50;99.90;;;;;;5079515;28;19977;-78
2022/07/06 07:39:32;;;;;;;;;;;16.50;99.90;;;;;;5079799;28;19928;-78
2022/07/06 07:41:58;;;;;;;;;;;16.50;99.90;;;;;;5079104;28;20312;-78
2022/07/06 07:44:24;;;;;;;;;;;16.60;99.90;;;;;;5095747;28;19930;-78
2022/07/06 07:46:52;;;;;;;;;;;16.80;99.90;;;;;;5096856;28;19974;-78
2022/07/06 07:49:18;;;;;;;;;;;16.80;99.90;;;;;;5096028;28;20032;-79
2022/07/06 07:51:46;;;;;;;;;;;16.90;99.90;;;;;;5079475;28;19923;-78
2022/07/06 07:54:12;;;;;;;;;;;17.00;99.90;;;;;;5079318;28;20291;-78
2022/07/06 07:56:40;;;;;;;;;;;17.20;99.90;;;;;;5079409;28;19973;-78
2022/07/06 07:59:06;;;;;;;;;;;17.30;99.90;;;;;;5096095;28;19928;-80
2022/07/06 08:01:32;;;;;;;;;;;17.30;99.90;;;;;;5079226;28;19939;-75
2022/07/06 08:03:58;;;;;;;;;;;17.40;99.90;;;;;;5079156;28;19932;-80
2022/07/06 08:06:23;;;;;;;;;;;17.40;99.90;;;;;;5079160;28;19949;-79
2022/07/06 08:08:49;;;;;;;;;;;17.50;99.90;;;;;;5096726;28;20029;-79
2022/07/06 08:11:14;;;;;;;;;;;17.70;99.90;;;;;;5095952;28;19931;-80
2022/07/06 08:13:40;;;;;;;;;;;17.70;99.90;;;;;;5062228;28;20252;-78
2022/07/06 08:16:06;;;;;;;;;;;17.70;99.90;;;;;;5095850;28;19931;-78
2022/07/06 08:18:31;;;;;;;;;;;17.60;99.90;;;;;;5079122;28;19924;-78
2022/07/06 08:20:57;;;;;;;;;;;17.50;99.90;;;;;;5063006;28;19927;-79
2022/07/06 08:23:23;;;;;;;;;;;17.50;99.90;;;;;;5095507;28;19928;-78
2022/07/06 08:25:48;;;;;;;;;;;17.30;99.90;;;;;;5095687;28;20390;-78
2022/07/06 08:28:14;;;;;;;;;;;17.40;99.90;;;;;;5079128;28;19924;-78
2022/07/06 08:30:39;;;;;;;;;;;17.50;99.90;;;;;;5079630;28;19989;-78
2022/07/06 08:33:05;;;;;;;;;;;17.60;99.90;;;;;;5079465;28;19924;-78
2022/07/06 08:35:31;;;;;;;;;;;17.70;99.90;;;;;;5095450;28;19962;-77
2022/07/06 08:37:57;;;;;;;;;;;17.70;99.90;;;;;;5096361;28;19953;-78
2022/07/06 08:40:23;;;;;;;;;;;17.80;99.90;;;;;;5095714;28;20283;-78
2022/07/06 08:42:53;;;;;;;;;;;17.90;99.90;;;;;;5091812;28;20067;-77
2022/07/06 08:45:19;;;;;;;;;;;18.00;99.90;;;;;;5075767;28;19924;-79
2022/07/06 08:47:45;;;;;;;;;;;17.90;99.90;;;;;;5075321;28;19924;-78
2022/07/06 08:50:11;;;;;;;;;;;17.90;99.90;;;;;;5075986;28;19963;-78
2022/07/06 08:52:38;;;;;;;;;;;17.90;99.90;;;;;;5092148;28;20360;-79
2022/07/06 08:55:04;;;;;;;;;;;17.80;99.90;;;;;;5075308;28;19924;-78
2022/07/06 08:57:29;;;;;;;;;;;17.90;99.90;;;;;;5058661;28;19930;-78
2022/07/06 08:59:55;;;;;;;;;;;18.00;99.90;;;;;;5077806;28;19924;-78
2022/07/06 09:02:23;;;;;;;;;;;18.00;99.90;;;;;;5079135;28;20451;-78
2022/07/06 09:04:50;;;;;;;;;;;18.20;99.90;;;;;;5079370;28;20364;-78
2022/07/06 09:07:17;;;;;;;;;;;18.20;99.90;;;;;;5095988;28;20314;-78
2022/07/06 09:09:44;;;;;;;;;;;18.20;99.90;;;;;;5096109;28;20033;-79
2022/07/06 09:12:12;;;;;;;;;;;18.20;99.90;;;;;;5096798;28;19989;-80
2022/07/06 09:14:38;;;;;;;;;;;18.30;99.90;;;;;;5078910;28;19932;-80
2022/07/06 09:17:04;;;;;;;;;;;18.30;99.90;;;;;;5095750;28;19973;-78
2022/07/06 09:19:31;;;;;;;;;;;18.40;99.90;;;;;;5095934;28;20308;-79
2022/07/06 09:21:57;;;;;;;;;;;18.50;99.90;;;;;;5095807;28;20018;-79
2022/07/06 09:24:22;;;;;;;;;;;18.60;99.90;;;;;;5079241;28;19975;-80
2022/07/06 09:26:48;;;;;;;;;;;18.70;99.90;;;;;;5095915;28;19924;-80
2022/07/06 09:29:14;;;;;;;;;;;18.70;99.90;;;;;;5095596;28;19946;-80
2022/07/06 09:31:39;;;;;;;;;;;18.80;99.90;;;;;;5095876;28;19924;-80
2022/07/06 09:34:06;;;;;;;;;;;18.90;99.90;;;;;;5079299;28;20261;-80
2022/07/06 09:36:39;;;;;;;;;;;19.00;99.90;;;;;;5095988;28;19924;-79
2022/07/06 09:39:14;;;;;;;;;;;19.10;99.90;;;;;;5095730;28;20010;-79
2022/07/06 09:41:40;;;;;;;;;;;19.00;99.90;;;;;;5095886;28;19924;-80
2022/07/06 09:44:06;;;;;;;;;;;19.10;99.90;;;;;;5079216;28;20261;-80
2022/07/06 09:46:41;;;;;;;;;;;19.20;99.90;;;;;;5079017;28;19928;-79
2022/07/06 09:49:08;;;;;;;;;;;19.20;99.90;;;;;;5095660;28;19938;-79
2022/07/06 09:51:37;;;;;;;;;;;19.20;99.90;;;;;;5096045;28;19928;-80
2022/07/06 09:54:08;;;;;;;;;;;19.10;99.90;;;;;;5078098;28;20379;-80
2022/07/06 09:56:40;;;;;;;;;;;19.10;99.90;;;;;;5095447;28;20003;-79
2022/07/06 09:59:09;;;;;;;;;;;19.20;99.90;;;;;;5078466;28;19971;-79
2022/07/06 10:01:39;;;;;;;;;;;19.30;99.90;;;;;;5096138;28;19934;-79
2022/07/06 10:04:08;;;;;;;;;;;19.40;99.90;;;;;;5078532;28;19942;-81
2022/07/06 10:06:35;;;;;;;;;;;19.60;99.90;;;;;;5095187;28;19924;-79
2022/07/06 10:09:00;;;;;;;;;;;19.50;99.90;;;;;;5078997;28;19931;-79
2022/07/06 10:11:28;;;;;;;;;;;19.70;99.90;;;;;;5095029;28;20279;-78
2022/07/06 10:13:55;;;;;;;;;;;19.70;99.90;;;;;;5077985;28;19928;-78
2022/07/06 10:16:22;;;;;;;;;;;19.60;99.90;;;;;;5129148;27;19924;-78
2022/07/06 10:18:49;;;;;;;;;;;19.60;99.90;;;;;;5078120;28;19924;-78
2022/07/06 10:21:16;;;;;;;;;;;19.60;99.90;;;;;;5095109;28;20019;-79
2022/07/06 10:23:42;;;;;;;;;;;19.70;99.90;;;;;;5095063;28;19924;-79
2022/07/06 10:26:08;;;;;;;;;;;19.70;99.90;;;;;;5078110;28;19931;-80
2022/07/06 10:28:33;;;;;;;;;;;19.60;99.90;;;;;;5077681;28;20316;-78
2022/07/06 10:30:59;;;;;;;;;;;19.80;99.90;;;;;;5094722;28;19931;-79
2022/07/06 10:33:25;;;;;;;;;;;20.10;99.90;;;;;;5094451;28;19924;-79
2022/07/06 10:35:51;;;;;;;;;;;20.40;99.90;;;;;;5095365;28;19924;-79
2022/07/06 10:38:17;;;;;;;;;;;20.50;99.90;;;;;;5094239;28;20368;-79
2022/07/06 10:43:34;;;;;;;;;;;20.50;99.90;;;;;;5114581;27;19924;-78
2022/07/06 10:46:04;;;;;;;;;;;20.60;99.90;;;;;;5094584;28;19924;-78
2022/07/06 10:48:37;;;;;;;;;;;20.60;99.90;;;;;;5095359;28;19924;-79
2022/07/06 10:51:04;;;;;;;;;;;20.70;99.90;;;;;;5077911;28;20276;-79
2022/07/06 10:53:34;;;;;;;;;;;20.80;99.90;;;;;;5094868;28;19924;-79
2022/07/06 10:56:00;;;;;;;;;;;20.80;99.90;;;;;;5094530;28;19924;-82
2022/07/06 10:58:34;;;;;;;;;;;20.80;99.90;;;;;;5077926;28;19931;-78
2022/07/06 11:01:00;;;;;;;;;;;20.80;99.90;;;;;;5095930;28;20007;-77
2022/07/06 11:03:30;;;;;;;;;;;20.50;99.90;;;;;;5093957;28;19990;-78
2022/07/06 11:06:19;;;;;;;;;;;20.50;99.90;;;;;;5076877;28;20264;-77
2022/07/06 11:08:45;;;;;;;;;;;20.60;99.90;;;;;;5082743;28;19931;-77
2022/07/06 11:11:16;;;;;;;;;;;20.70;99.90;;;;;;5093012;28;19924;-80
2022/07/06 11:13:52;;;;;;;;;;;21.00;99.90;;;;;;5076356;28;20364;-76
2022/07/06 11:16:18;;;;;;;;;;;21.20;99.90;;;;;;5093830;28;19968;-77
2022/07/06 11:18:49;;;;;;;;;;;21.30;99.90;;;;;;5093728;28;19971;-76
2022/07/06 11:21:22;;;;;;;;;;;21.40;99.90;;;;;;5093602;28;20037;-77
2022/07/06 11:23:49;;;;;;;;;;;21.60;99.90;;;;;;5094366;28;20372;-79
2022/07/06 11:26:15;;;;;;;;;;;21.60;99.90;;;;;;5093212;28;19967;-80
2022/07/06 11:28:40;;;;;;;;;;;21.60;99.90;;;;;;5093300;28;19924;-77
2022/07/06 11:31:06;;;;;;;;;;;21.60;99.90;;;;;;5093122;28;20018;-77
2022/07/06 11:33:32;;;;;;;;;;;21.50;99.90;;;;;;5075757;28;20283;-77
2022/07/06 11:36:11;;;;;;;;;;;21.40;99.90;;;;;;5093221;28;19930;-78
2022/07/06 11:38:36;;;;;;;;;;;21.50;99.90;;;;;;5092954;28;19947;-76
2022/07/06 11:41:02;;;;;;;;;;;21.70;99.90;;;;;;5076138;28;20510;-78
2022/07/06 11:43:28;;;;;;;;;;;21.80;99.90;;;;;;5112505;28;20376;-76
2022/07/06 11:45:53;;;;;;;;;;;21.70;99.90;;;;;;5114266;28;20101;-78
2022/07/06 11:48:19;;;;;;;;;;;21.70;99.90;;;;;;5080211;28;19939;-77
2022/07/06 11:50:56;;;;;;;;;;;21.60;99.90;;;;;;5080072;28;20343;-78
2022/07/06 11:53:22;;;;;;;;;;;21.50;99.90;;;;;;5079287;28;20329;-77
2022/07/06 11:55:47;;;;;;;;;;;21.40;99.90;;;;;;5096227;28;19977;-77
2022/07/06 11:58:13;;;;;;;;;;;21.30;99.90;;;;;;5096093;28;19928;-77
2022/07/06 12:00:39;;;;;;;;;;;21.30;99.90;;;;;;5078909;28;20394;-79
2022/07/06 12:03:04;;;;;;;;;;;21.30;99.90;;;;;;5079568;28;19924;-78
2022/07/06 12:05:30;;;;;;;;;;;21.10;99.90;;;;;;5096216;28;19974;-77
2022/07/06 12:08:05;;;;;;;;;;;21.10;99.90;;;;;;5079286;28;19924;-77
2022/07/06 12:10:34;;;;;;;;;;;21.00;99.90;;;;;;5078779;28;19924;-77
2022/07/06 12:13:04;;;;;;;;;;;20.80;99.90;;;;;;5079665;28;19931;-78
2022/07/06 12:15:30;;;;;;;;;;;20.70;99.90;;;;;;5095961;28;19924;-78
2022/07/06 12:17:55;;;;;;;;;;;20.60;99.90;;;;;;5095989;28;19924;-78
2022/07/06 12:20:21;;;;;;;;;;;20.40;99.90;;;;;;5079667;28;20374;-78
2022/07/06 12:22:47;;;;;;;;;;;20.40;99.90;;;;;;5078989;28;19999;-79
2022/07/06 12:25:28;;;;;;;;;;;20.40;99.90;;;;;;5078795;28;19928;-78
2022/07/06 12:27:54;;;;;;;;;;;20.50;99.90;;;;;;5096105;28;20006;-78
2022/07/06 12:30:19;;;;;;;;;;;20.50;99.90;;;;;;5062535;28;20392;-77
2022/07/06 12:32:45;;;;;;;;;;;20.70;99.90;;;;;;5096152;28;19923;-77
2022/07/06 12:35:11;;;;;;;;;;;20.90;99.90;;;;;;5082416;28;19924;-76
2022/07/06 12:37:36;;;;;;;;;;;20.90;99.90;;;;;;5134364;27;20279;-76
2022/07/06 12:40:02;;;;;;;;;;;20.80;99.90;;;;;;5100563;28;20022;-76
2022/07/06 12:42:28;;;;;;;;;;;20.90;99.90;;;;;;5099765;28;19924;-77
2022/07/06 12:44:54;;;;;;;;;;;20.80;99.90;;;;;;5100153;28;19924;-79
2022/07/06 12:47:21;;;;;;;;;;;20.60;99.90;;;;;;5100317;28;19923;-76
2022/07/06 12:49:47;;;;;;;;;;;20.50;99.90;;;;;;5099849;28;20379;-76
2022/07/06 12:52:13;;;;;;;;;;;20.50;99.90;;;;;;5100635;28;19974;-77
2022/07/06 12:54:46;;;;;;;;;;;20.30;99.90;;;;;;5083116;28;20282;-77
2022/07/06 12:57:12;;;;;;;;;;;20.30;99.90;;;;;;5082603;28;19931;-78
2022/07/06 12:59:38;;;;;;;;;;;20.10;99.90;;;;;;5099913;28;19924;-83
2022/07/06 13:02:05;;;;;;;;;;;19.90;99.90;;;;;;5083173;28;19931;-82
2022/07/06 13:04:34;;;;;;;;;;;20.00;99.90;;;;;;5083614;28;19923;-83
2022/07/06 13:07:01;;;;;;;;;;;20.00;99.90;;;;;;5099625;28;19930;-80
2022/07/06 13:09:27;;;;;;;;;;;19.90;99.90;;;;;;5099964;28;19924;-81
2022/07/06 13:11:53;;;;;;;;;;;19.80;99.90;;;;;;5082727;28;20371;-81
2022/07/06 13:14:19;;;;;;;;;;;19.80;99.90;;;;;;5099473;28;19930;-84
2022/07/06 13:16:45;;;;;;;;;;;19.70;99.90;;;;;;5099902;28;19967;-83
2022/07/06 13:19:11;;;;;;;;;;;19.70;99.90;;;;;;5082575;28;19953;-83
2022/07/06 13:21:37;;;;;;;;;;;19.80;99.90;;;;;;5066607;28;19924;-82
2022/07/06 13:24:03;;;;;;;;;;;19.80;99.90;;;;;;5099396;28;19996;-81
2022/07/06 13:26:31;;;;;;;;;;;19.80;99.90;;;;;;5065819;28;19924;-83
2022/07/06 13:28:59;;;;;;;;;;;19.80;99.90;;;;;;5082794;28;19924;-81
2022/07/06 13:31:24;;;;;;;;;;;19.60;99.90;;;;;;5065998;28;19928;-82
2022/07/06 13:33:50;;;;;;;;;;;19.60;99.90;;;;;;5065561;28;19931;-82
2022/07/06 13:36:16;;;;;;;;;;;19.50;99.90;;;;;;5082244;28;19928;-82
2022/07/06 13:38:42;;;;;;;;;;;19.30;99.90;;;;;;5099082;28;20014;-79
2022/07/06 13:41:08;;;;;;;;;;;19.00;99.90;;;;;;5082141;28;20339;-80
2022/07/06 13:43:36;;;;;;;;;;;18.60;99.90;;;;;;5081462;28;19957;-80
2022/07/06 13:46:06;;;;;;;;;;;18.40;99.90;;;;;;5099192;28;19931;-81
2022/07/06 13:48:32;;;;;;;;;;;18.30;99.90;;;;;;5099051;28;19924;-82
2022/07/06 13:50:58;;;;;;;;;;;18.20;99.90;;;;;;5081944;28;19923;-81
2022/07/06 13:53:23;;;;;;;;;;;18.30;99.90;;;;;;5082098;28;19980;-81
2022/07/06 13:55:49;;;;;;;;;;;18.40;99.90;;;;;;5081887;28;19984;-80
2022/07/06 13:58:14;;;;;;;;;;;18.40;99.90;;;;;;5099595;28;19930;-80
2022/07/06 14:00:40;;;;;;;;;;;18.40;99.90;;;;;;5081866;28;20306;-81
2022/07/06 14:03:05;;;;;;;;;;;18.30;99.90;;;;;;5098403;28;20009;-80
2022/07/06 14:05:31;;;;;;;;;;;18.30;99.90;;;;;;5081787;28;20039;-80
2022/07/06 14:07:57;;;;;;;;;;;18.40;99.90;;;;;;5081893;28;19924;-81
2022/07/06 14:10:23;;;;;;;;;;;18.30;99.90;;;;;;5098544;28;20004;-81
2022/07/06 14:12:48;;;;;;;;;;;18.20;99.90;;;;;;5082110;28;19992;-82
2022/07/06 14:15:14;;;;;;;;;;;18.10;99.90;;;;;;5081669;28;20359;-82
2022/07/06 14:17:40;;;;;;;;;;;17.90;99.90;;;;;;5081721;28;19935;-82
2022/07/06 14:20:06;;;;;;;;;;;17.80;99.90;;;;;;5081819;28;19931;-82
2022/07/06 14:22:32;;;;;;;;;;;17.70;99.90;;;;;;5082155;28;19923;-82